Zylks, Louisiana
Current Conditions -  °F | °C
As of 9:05 AM on Friday 19 Dec 2014 (Local Time) from KTXK Reporting Station
Haze Haze  
Wind Chill: 38°   Ceiling: 500
Heat Index: 42°   Visibility: 4mi
Dew Point: 41°   Wind: 7mph
Humidity: 96%   Direction: 50°NE
Pressure: 30.25"   Gusts: NA
Location:  32.9696°N, 93.9801°W
Report Text: KTXK 191505Z 05006KT 4SM BR OVC005 06/05 A3025 RMK AO2 T00560050
Loading
Personal Weather Stations






























Interactive Weather Map New forecast layout! Learn more

10-Day Weather Forecast

Advertisements
Track Severe Weather on mobile